LGAVLGRP

Guest
Details From LGAV - Athens Intl Airport Elefterios Venizel
To LGRP - DIAGORAS
Flight Number -
Tags decoded
Created
Modified
Stats Distance 219 nm / 406 km
Max Altitude 0 ft / 0 m
Waypoints 4
Social Downloads 1
Likes 0
Share VATSIM

Download

Looking for another format? Having issues loading an existing format? Contact us
Advertisement - Login to hide

Notes

Requested: LGAV PIDAX AKINA LGRP

Route

LGAV PIDAX AKINA LGRP

ID Type Via Altitude Latitude Longitude Leg Dist Tot Dist Heading (true) Name
O LGAV APT - 0 ft / 0 m 37.93636˚ 23.94447˚ - 0 nm - Athens Intl Airport Elefterios Venizel
PIDAX FIX - 0 ft / 0 m 37.22806˚ 25.51139˚ 85 nm 85 nm 119° / 120° -
AKINA FIX - 0 ft / 0 m 36.98028˚ 26.24861˚ 38 nm 124 nm 113° / 113° -
O LGRP APT - 0 ft / 0 m 36.40542˚ 28.08619˚ 94 nm 219 nm 111° / 112° DIAGORAS

Altitude Profile

Advertisement - Login to hide

Weather


0- 5 10 15 20 25 30 35+ Temperature / ° C

Clouds and Precipitation
Forecast for 2018-05-27 18:00 UTC. Updated 2 hours ago

Ground ~20,000 ft ~40,000 ft Winds

LGAV

Details ICAO LGAV (ATH)
Name Athens Intl Airport Elefterios Venizel
Region Greece
Timezone Europe/Athens (UTC+3.0)
Stats Elevation 308 ft / 94 m (AMSL)
Location 37.936357° 23.944470°
Runways 2
Magnetic Variation 4.528° E

METAR

LGAV 271920Z 35005KT 9999 FEW040 23/13 Q1017 NOSIG

Decode

TAF

TAF TAF LGAV 271700Z 2718/2818 01016KT 9999 FEW020 BECMG 2804/2806 01017G27KT

Decode

Departure Runways

ID Width Length Bearing (true) Bearing (mag) Surface Threshold Offset Overrun Length
03L 148 ft / 45 m 12,474 ft / 3,802 m 36.51° 31.98° Asphalt 984 ft / 300 m 393 ft / 120 m
03R 148 ft / 45 m 13,131 ft / 4,002 m 36.52° 31.99° Asphalt 984 ft / 300 m 393 ft / 120 m
21L 148 ft / 45 m 13,131 ft / 4,002 m 216.54° 212.01° Asphalt 984 ft / 300 m 393 ft / 120 m
21R 148 ft / 45 m 12,474 ft / 3,802 m 216.53° 212.00° Asphalt 984 ft / 300 m 393 ft / 120 m

LGRP

Details ICAO LGRP (RHO)
Name DIAGORAS
Region Greece
Timezone Europe/Athens (UTC+3.0)
Stats Elevation 17 ft / 5 m (AMSL)
Location 36.405420° 28.086193°
Runways 1
Magnetic Variation 4.823° E

METAR

LGRP 271920Z 24003KT 9999 FEW016 23/18 Q1010 NOSIG

Decode

TAF

TAF LGRP 271700Z 2718/2818 26010KT 9999 FEW016 PROB30 TEMPO 2810/2817 5000 SHRA SCT016 FEW018CB BKN050

Decode

Destination Runways

ID Width Length Bearing (true) Bearing (mag) Surface Threshold Offset Overrun Length
07 148 ft / 45 m 10,830 ft / 3,301 m 69.97° 65.15° Asphalt 0 ft / 0 m 0 ft / 0 m
25 148 ft / 45 m 10,830 ft / 3,301 m 249.99° 245.17° Asphalt 0 ft / 0 m 0 ft / 0 m

Approach Navaids

Runway Type Ident Frequency Range Bearing (true) Bearing (mag) Slope Elevation
25 Localiser IRDS 110.30 MHz 18 nm / 33 km 250.45° 245.62° - 17 ft / 5 m (AMSL)
25 Glidescope IRDS 110.30 MHz 10 nm / 19 km 249.98° 245.16° 3.00° 17 ft / 5 m (AMSL)

Popular Alternatives